Погода Жджаркана неделю

Люблинское воеводство, Польша

15 - 21 июля
  • 15июля
    Сегодня
    +19°
    +29°
    Ясно и безоблачно
    ВремяПогодаТемператураВлажностьДавлениеВетер, м/сВероятность осадков
    02:00Ясно и безоблачно+19°C91 %747 мм1.5 м/с2 %
    05:00Практически безоблачно+19°C94 %747 мм1.4 м/с2 %
    08:00Облачно с прояснениями+22°C81 %747 мм1.9 м/с4 %
    11:00Облачно с прояснениями+24°C69 %747 мм1.5 м/с9 %
    14:00Ясно и безоблачно+27°C54 %747 мм1.9 м/с5 %
    17:00Практически безоблачно+28°C48 %747 мм2.4 м/с2 %
    20:00Ясно и безоблачно+26°C62 %747 мм1.4 м/с2 %
    23:00Ясно и безоблачно+22°C74 %747 мм1.6 м/с2 %
  • 16июля
    Вторник
    +21°
    +32°
    Практически безоблачно
    ВремяПогодаТемператураВлажностьДавлениеВетер, м/сВероятность осадков
    02:00Ясно и безоблачно+21°C81 %747 мм1.4 м/с2 %
    05:00Ясно и безоблачно+20°C92 %747 мм1.4 м/с2 %
    08:00Ясно и безоблачно+25°C71 %747 мм2.7 м/с2 %
    11:00Практически безоблачно+28°C61 %746 мм3.3 м/с6 %
    14:00Практически безоблачно+31°C58 %746 мм3.8 м/с13 %
    17:00Облачно с прояснениями+29°C64 %745 мм3.4 м/с44 %
    20:00Облачно с прояснениями+26°C76 %745 мм2.1 м/с40 %
    23:00Небольшая облачность, возможен дождь с грозой+24°C85 %746 мм2.7 м/с42 %
  • 17июля
    Среда
    +18°
    +29°
    Ясно и безоблачно
    ВремяПогодаТемператураВлажностьДавлениеВетер, м/сВероятность осадков
    02:00Облачно с прояснениями, ливень+23°C94 %746 мм1.8 м/с61 %
    05:00Облачно с прояснениями+22°C96 %746 мм2.4 м/с18 %
    08:00Облачно с прояснениями+22°C85 %748 мм3.3 м/с15 %
    11:00Ясно и безоблачно+25°C56 %749 мм3.3 м/с14 %
    14:00Ясно и безоблачно+28°C44 %749 мм4.0 м/с14 %
    17:00Практически безоблачно+28°C43 %749 мм3.8 м/с6 %
    20:00Практически безоблачно+25°C58 %750 мм1.8 м/с4 %
    23:00Практически безоблачно+22°C56 %750 мм2.2 м/с2 %
  • 18июля
    Четверг
    +15°
    +28°
    Ясно и безоблачно
    ВремяПогодаТемператураВлажностьДавлениеВетер, м/сВероятность осадков
    02:00Ясно и безоблачно+20°C62 %751 мм1.9 м/с2 %
    05:00Практически безоблачно+18°C72 %751 мм1.8 м/с6 %
    08:00Ясно и безоблачно+22°C62 %752 мм2.6 м/с11 %
    11:00Ясно и безоблачно+25°C44 %752 мм3.1 м/с7 %
    14:00Ясно и безоблачно+27°C41 %752 мм3.7 м/с8 %
    17:00Практически безоблачно+28°C39 %751 мм3.9 м/с3 %
    20:00Ясно и безоблачно+24°C59 %751 мм1.8 м/с4 %
    23:00Ясно и безоблачно+20°C71 %751 мм1.9 м/с2 %
  • 19июля
    Пятница
    +15°
    +27°
    Небольшая облачность
    ВремяПогодаТемператураВлажностьДавлениеВетер, м/сВероятность осадков
    02:00Облачно с прояснениями+17°C78 %751 мм1.8 м/с2 %
    05:00Облачно с прояснениями+16°C80 %751 мм1.5 м/с2 %
    08:00Практически безоблачно+21°C58 %751 мм2.2 м/с2 %
    11:00Практически безоблачно+25°C42 %751 мм2.9 м/с8 %
    14:00Небольшая облачность+26°C40 %750 мм3.6 м/с12 %
    17:00Ясно и безоблачно+26°C44 %749 мм3.6 м/с10 %
    20:00Ясно и безоблачно+23°C53 %749 мм2.3 м/с5 %
    23:00Ясно и безоблачно+20°C67 %749 мм2.0 м/с2 %
Мы используем cookies
Соглашаюсь